sensor_id;sensor_type;location;lat;lon;timestamp;P1;durP1;ratioP1;P2;durP2;ratioP2
54430;SDS011;40342;52.998;5.862;2023-11-19T00:00:19;34.25;;;7.57;;
54430;SDS011;40342;52.998;5.862;2023-11-19T00:02:45;38.90;;;6.93;;
54430;SDS011;40342;52.998;5.862;2023-11-19T00:05:12;30.45;;;6.55;;
54430;SDS011;40342;52.998;5.862;2023-11-19T00:07:38;29.13;;;6.05;;
54430;SDS011;40342;52.998;5.862;2023-11-19T00:10:11;30.02;;;6.97;;
54430;SDS011;40342;52.998;5.862;2023-11-19T00:12:38;30.08;;;6.05;;
54430;SDS011;40342;52.998;5.862;2023-11-19T00:15:08;36.92;;;6.38;;
54430;SDS011;40342;52.998;5.862;2023-11-19T00:17:36;31.85;;;5.90;;
54430;SDS011;40342;52.998;5.862;2023-11-19T00:20:03;36.15;;;5.97;;
54430;SDS011;40342;52.998;5.862;2023-11-19T00:22:31;30.60;;;5.78;;
54430;SDS011;40342;52.998;5.862;2023-11-19T00:24:56;31.05;;;6.45;;
54430;SDS011;40342;52.998;5.862;2023-11-19T00:27:22;40.08;;;6.80;;
54430;SDS011;40342;52.998;5.862;2023-11-19T00:29:48;38.78;;;5.70;;
54430;SDS011;40342;52.998;5.862;2023-11-19T00:32:14;33.92;;;6.07;;
54430;SDS011;40342;52.998;5.862;2023-11-19T00:34:40;34.05;;;6.10;;
54430;SDS011;40342;52.998;5.862;2023-11-19T00:37:08;32.58;;;5.97;;
54430;SDS011;40342;52.998;5.862;2023-11-19T00:39:33;34.08;;;5.55;;
54430;SDS011;40342;52.998;5.862;2023-11-19T00:41:59;34.67;;;6.47;;
54430;SDS011;40342;52.998;5.862;2023-11-19T00:44:25;36.75;;;5.85;;
54430;SDS011;40342;52.998;5.862;2023-11-19T00:46:50;34.60;;;6.07;;
54430;SDS011;40342;52.998;5.862;2023-11-19T00:49:16;34.35;;;6.45;;
54430;SDS011;40342;52.998;5.862;2023-11-19T00:51:41;33.15;;;6.22;;
54430;SDS011;40342;52.998;5.862;2023-11-19T00:54:07;38.05;;;6.20;;
54430;SDS011;40342;52.998;5.862;2023-11-19T00:56:32;40.50;;;6.00;;
54430;SDS011;40342;52.998;5.862;2023-11-19T00:58:58;34.50;;;5.95;;
54430;SDS011;40342;52.998;5.862;2023-11-19T01:01:25;32.25;;;6.75;;
54430;SDS011;40342;52.998;5.862;2023-11-19T01:03:50;35.95;;;6.13;;
54430;SDS011;40342;52.998;5.862;2023-11-19T01:06:26;34.08;;;6.28;;
54430;SDS011;40342;52.998;5.862;2023-11-19T01:08:55;31.55;;;5.63;;
54430;SDS011;40342;52.998;5.862;2023-11-19T01:11:24;30.27;;;5.78;;
54430;SDS011;40342;52.998;5.862;2023-11-19T01:13:50;30.65;;;5.55;;
54430;SDS011;40342;52.998;5.862;2023-11-19T01:16:16;33.97;;;6.53;;
54430;SDS011;40342;52.998;5.862;2023-11-19T01:18:42;40.72;;;6.20;;
54430;SDS011;40342;52.998;5.862;2023-11-19T01:21:08;32.15;;;5.63;;
54430;SDS011;40342;52.998;5.862;2023-11-19T01:23:34;35.65;;;5.65;;
54430;SDS011;40342;52.998;5.862;2023-11-19T01:26:00;34.65;;;6.13;;
54430;SDS011;40342;52.998;5.862;2023-11-19T01:28:25;37.88;;;7.05;;
54430;SDS011;40342;52.998;5.862;2023-11-19T01:30:51;36.35;;;5.88;;
54430;SDS011;40342;52.998;5.862;2023-11-19T01:33:17;37.28;;;5.85;;
54430;SDS011;40342;52.998;5.862;2023-11-19T01:35:42;44.13;;;6.82;;
54430;SDS011;40342;52.998;5.862;2023-11-19T01:38:08;44.42;;;6.53;;
54430;SDS011;40342;52.998;5.862;2023-11-19T01:40:34;32.63;;;6.00;;
54430;SDS011;40342;52.998;5.862;2023-11-19T01:43:01;36.30;;;5.88;;
54430;SDS011;40342;52.998;5.862;2023-11-19T01:45:28;38.30;;;6.45;;
54430;SDS011;40342;52.998;5.862;2023-11-19T01:47:55;36.97;;;7.60;;
54430;SDS011;40342;52.998;5.862;2023-11-19T01:50:22;37.90;;;7.18;;
54430;SDS011;40342;52.998;5.862;2023-11-19T01:52:50;33.88;;;6.32;;
54430;SDS011;40342;52.998;5.862;2023-11-19T01:55:20;42.97;;;6.90;;
54430;SDS011;40342;52.998;5.862;2023-11-19T01:57:48;36.58;;;7.22;;
54430;SDS011;40342;52.998;5.862;2023-11-19T02:00:14;33.58;;;6.93;;
54430;SDS011;40342;52.998;5.862;2023-11-19T02:02:41;34.08;;;5.50;;
54430;SDS011;40342;52.998;5.862;2023-11-19T02:05:08;36.03;;;6.07;;
54430;SDS011;40342;52.998;5.862;2023-11-19T02:07:36;39.50;;;5.97;;
54430;SDS011;40342;52.998;5.862;2023-11-19T02:10:01;37.88;;;6.20;;
54430;SDS011;40342;52.998;5.862;2023-11-19T02:12:30;37.40;;;6.75;;
54430;SDS011;40342;52.998;5.862;2023-11-19T02:14:59;38.45;;;6.82;;
54430;SDS011;40342;52.998;5.862;2023-11-19T02:17:25;31.40;;;6.47;;
54430;SDS011;40342;52.998;5.862;2023-11-19T02:19:52;32.65;;;5.80;;
54430;SDS011;40342;52.998;5.862;2023-11-19T02:22:17;33.38;;;6.75;;
54430;SDS011;40342;52.998;5.862;2023-11-19T02:24:43;38.10;;;7.13;;
54430;SDS011;40342;52.998;5.862;2023-11-19T02:27:14;34.80;;;6.57;;
54430;SDS011;40342;52.998;5.862;2023-11-19T02:29:50;31.08;;;6.80;;
54430;SDS011;40342;52.998;5.862;2023-11-19T02:32:16;34.53;;;6.88;;
54430;SDS011;40342;52.998;5.862;2023-11-19T02:34:42;35.08;;;7.05;;
54430;SDS011;40342;52.998;5.862;2023-11-19T02:37:07;34.38;;;6.43;;
54430;SDS011;40342;52.998;5.862;2023-11-19T02:39:33;36.45;;;6.63;;
54430;SDS011;40342;52.998;5.862;2023-11-19T02:41:59;38.45;;;6.15;;
54430;SDS011;40342;52.998;5.862;2023-11-19T02:44:25;37.50;;;6.03;;
54430;SDS011;40342;52.998;5.862;2023-11-19T02:46:53;30.13;;;6.35;;
54430;SDS011;40342;52.998;5.862;2023-11-19T02:49:18;30.67;;;5.32;;
54430;SDS011;40342;52.998;5.862;2023-11-19T02:51:44;42.45;;;6.85;;
54430;SDS011;40342;52.998;5.862;2023-11-19T02:54:13;39.03;;;6.10;;
54430;SDS011;40342;52.998;5.862;2023-11-19T02:56:42;32.53;;;6.07;;
54430;SDS011;40342;52.998;5.862;2023-11-19T02:59:08;31.08;;;5.55;;
54430;SDS011;40342;52.998;5.862;2023-11-19T03:01:43;31.98;;;5.60;;
54430;SDS011;40342;52.998;5.862;2023-11-19T03:04:13;36.90;;;5.95;;
54430;SDS011;40342;52.998;5.862;2023-11-19T03:06:42;33.53;;;6.43;;
54430;SDS011;40342;52.998;5.862;2023-11-19T03:09:07;35.08;;;6.63;;
54430;SDS011;40342;52.998;5.862;2023-11-19T03:11:35;30.65;;;6.97;;
54430;SDS011;40342;52.998;5.862;2023-11-19T03:14:01;30.23;;;5.57;;
54430;SDS011;40342;52.998;5.862;2023-11-19T03:16:28;34.45;;;7.13;;
54430;SDS011;40342;52.998;5.862;2023-11-19T03:18:54;30.70;;;6.55;;
54430;SDS011;40342;52.998;5.862;2023-11-19T03:21:26;39.88;;;6.63;;
54430;SDS011;40342;52.998;5.862;2023-11-19T03:26:18;31.77;;;5.85;;
54430;SDS011;40342;52.998;5.862;2023-11-19T03:28:44;36.08;;;6.80;;
54430;SDS011;40342;52.998;5.862;2023-11-19T03:31:09;44.35;;;7.32;;
54430;SDS011;40342;52.998;5.862;2023-11-19T03:33:35;37.80;;;6.35;;
54430;SDS011;40342;52.998;5.862;2023-11-19T03:36:01;38.45;;;6.93;;
54430;SDS011;40342;52.998;5.862;2023-11-19T03:38:26;28.55;;;6.28;;
54430;SDS011;40342;52.998;5.862;2023-11-19T03:40:52;38.30;;;7.18;;
54430;SDS011;40342;52.998;5.862;2023-11-19T03:43:17;30.38;;;6.63;;
54430;SDS011;40342;52.998;5.862;2023-11-19T03:45:44;43.00;;;7.93;;
54430;SDS011;40342;52.998;5.862;2023-11-19T03:48:09;30.80;;;6.60;;
54430;SDS011;40342;52.998;5.862;2023-11-19T03:50:35;36.67;;;6.85;;
54430;SDS011;40342;52.998;5.862;2023-11-19T03:53:00;32.25;;;6.90;;
54430;SDS011;40342;52.998;5.862;2023-11-19T03:55:27;37.88;;;7.22;;
54430;SDS011;40342;52.998;5.862;2023-11-19T03:57:54;42.28;;;7.43;;
54430;SDS011;40342;52.998;5.862;2023-11-19T04:00:20;37.75;;;7.82;;
54430;SDS011;40342;52.998;5.862;2023-11-19T04:02:46;40.00;;;7.03;;
54430;SDS011;40342;52.998;5.862;2023-11-19T04:05:12;42.80;;;8.23;;
54430;SDS011;40342;52.998;5.862;2023-11-19T04:07:37;46.55;;;7.78;;
54430;SDS011;40342;52.998;5.862;2023-11-19T04:10:03;42.50;;;8.27;;
54430;SDS011;40342;52.998;5.862;2023-11-19T04:12:29;43.75;;;7.50;;
54430;SDS011;40342;52.998;5.862;2023-11-19T04:14:55;42.85;;;7.88;;
54430;SDS011;40342;52.998;5.862;2023-11-19T04:17:21;41.13;;;8.18;;
54430;SDS011;40342;52.998;5.862;2023-11-19T04:19:48;49.78;;;7.53;;
54430;SDS011;40342;52.998;5.862;2023-11-19T04:22:13;44.05;;;7.65;;
54430;SDS011;40342;52.998;5.862;2023-11-19T04:24:39;42.03;;;7.75;;
54430;SDS011;40342;52.998;5.862;2023-11-19T04:27:05;45.45;;;8.60;;
54430;SDS011;40342;52.998;5.862;2023-11-19T04:29:31;40.60;;;6.93;;
54430;SDS011;40342;52.998;5.862;2023-11-19T04:31:57;48.88;;;8.25;;
54430;SDS011;40342;52.998;5.862;2023-11-19T04:34:23;44.33;;;9.00;;
54430;SDS011;40342;52.998;5.862;2023-11-19T04:36:49;36.58;;;7.07;;
54430;SDS011;40342;52.998;5.862;2023-11-19T04:39:14;38.85;;;8.10;;
54430;SDS011;40342;52.998;5.862;2023-11-19T04:41:50;47.10;;;8.18;;
54430;SDS011;40342;52.998;5.862;2023-11-19T04:44:19;33.83;;;8.02;;
54430;SDS011;40342;52.998;5.862;2023-11-19T04:46:45;44.53;;;7.97;;
54430;SDS011;40342;52.998;5.862;2023-11-19T04:49:12;44.58;;;8.23;;
54430;SDS011;40342;52.998;5.862;2023-11-19T04:51:42;34.58;;;7.10;;
54430;SDS011;40342;52.998;5.862;2023-11-19T04:54:11;43.33;;;7.40;;
54430;SDS011;40342;52.998;5.862;2023-11-19T04:56:37;42.67;;;7.78;;
54430;SDS011;40342;52.998;5.862;2023-11-19T04:59:03;41.83;;;7.80;;
54430;SDS011;40342;52.998;5.862;2023-11-19T05:01:31;42.67;;;9.25;;
54430;SDS011;40342;52.998;5.862;2023-11-19T05:03:59;34.47;;;7.93;;
54430;SDS011;40342;52.998;5.862;2023-11-19T05:06:28;49.20;;;9.48;;
54430;SDS011;40342;52.998;5.862;2023-11-19T05:08:55;40.75;;;8.63;;
54430;SDS011;40342;52.998;5.862;2023-11-19T05:11:21;40.33;;;7.38;;
54430;SDS011;40342;52.998;5.862;2023-11-19T05:13:47;42.85;;;8.50;;
54430;SDS011;40342;52.998;5.862;2023-11-19T05:16:13;47.92;;;8.85;;
54430;SDS011;40342;52.998;5.862;2023-11-19T05:18:42;40.72;;;8.50;;
54430;SDS011;40342;52.998;5.862;2023-11-19T05:21:07;44.90;;;8.00;;
54430;SDS011;40342;52.998;5.862;2023-11-19T05:23:33;45.95;;;8.10;;
54430;SDS011;40342;52.998;5.862;2023-11-19T05:26:02;36.60;;;7.15;;
54430;SDS011;40342;52.998;5.862;2023-11-19T05:28:28;45.67;;;7.63;;
54430;SDS011;40342;52.998;5.862;2023-11-19T05:30:54;42.85;;;7.75;;
54430;SDS011;40342;52.998;5.862;2023-11-19T05:33:20;45.53;;;8.55;;
54430;SDS011;40342;52.998;5.862;2023-11-19T05:35:46;36.30;;;7.43;;
54430;SDS011;40342;52.998;5.862;2023-11-19T05:38:11;39.13;;;7.72;;
54430;SDS011;40342;52.998;5.862;2023-11-19T05:40:37;37.88;;;6.63;;
54430;SDS011;40342;52.998;5.862;2023-11-19T05:43:03;37.05;;;7.82;;
54430;SDS011;40342;52.998;5.862;2023-11-19T05:45:30;40.92;;;8.55;;
54430;SDS011;40342;52.998;5.862;2023-11-19T05:47:56;43.97;;;8.20;;
54430;SDS011;40342;52.998;5.862;2023-11-19T05:50:22;44.30;;;8.48;;
54430;SDS011;40342;52.998;5.862;2023-11-19T05:52:47;39.50;;;7.63;;
54430;SDS011;40342;52.998;5.862;2023-11-19T05:55:13;48.72;;;7.80;;
54430;SDS011;40342;52.998;5.862;2023-11-19T05:57:39;39.60;;;8.25;;
54430;SDS011;40342;52.998;5.862;2023-11-19T06:00:05;40.83;;;9.05;;
54430;SDS011;40342;52.998;5.862;2023-11-19T06:02:33;45.70;;;8.05;;
54430;SDS011;40342;52.998;5.862;2023-11-19T06:04:59;44.40;;;8.77;;
54430;SDS011;40342;52.998;5.862;2023-11-19T06:07:25;45.05;;;9.38;;
54430;SDS011;40342;52.998;5.862;2023-11-19T06:09:50;48.10;;;7.80;;
54430;SDS011;40342;52.998;5.862;2023-11-19T06:12:17;45.58;;;8.98;;
54430;SDS011;40342;52.998;5.862;2023-11-19T06:14:42;42.17;;;7.80;;
54430;SDS011;40342;52.998;5.862;2023-11-19T06:17:08;33.05;;;6.63;;
54430;SDS011;40342;52.998;5.862;2023-11-19T06:19:35;40.22;;;8.85;;
54430;SDS011;40342;52.998;5.862;2023-11-19T06:22:01;41.95;;;7.88;;
54430;SDS011;40342;52.998;5.862;2023-11-19T06:24:26;42.90;;;8.38;;
54430;SDS011;40342;52.998;5.862;2023-11-19T06:26:52;40.40;;;9.68;;
54430;SDS011;40342;52.998;5.862;2023-11-19T06:29:18;44.28;;;8.10;;
54430;SDS011;40342;52.998;5.862;2023-11-19T06:31:44;45.75;;;8.43;;
54430;SDS011;40342;52.998;5.862;2023-11-19T06:34:10;37.55;;;7.10;;
54430;SDS011;40342;52.998;5.862;2023-11-19T06:36:36;45.00;;;8.13;;
54430;SDS011;40342;52.998;5.862;2023-11-19T06:39:01;40.60;;;7.57;;
54430;SDS011;40342;52.998;5.862;2023-11-19T06:41:27;43.80;;;8.20;;
54430;SDS011;40342;52.998;5.862;2023-11-19T06:43:54;40.58;;;7.50;;
54430;SDS011;40342;52.998;5.862;2023-11-19T06:46:19;40.28;;;7.47;;
54430;SDS011;40342;52.998;5.862;2023-11-19T06:48:45;45.17;;;7.68;;
54430;SDS011;40342;52.998;5.862;2023-11-19T06:51:12;43.25;;;7.95;;
54430;SDS011;40342;52.998;5.862;2023-11-19T06:53:38;39.92;;;7.85;;
54430;SDS011;40342;52.998;5.862;2023-11-19T06:56:17;42.00;;;8.27;;
54430;SDS011;40342;52.998;5.862;2023-11-19T06:58:46;32.90;;;6.68;;
54430;SDS011;40342;52.998;5.862;2023-11-19T07:01:13;44.53;;;8.82;;
54430;SDS011;40342;52.998;5.862;2023-11-19T07:03:46;39.20;;;7.75;;
54430;SDS011;40342;52.998;5.862;2023-11-19T07:06:12;32.45;;;7.40;;
54430;SDS011;40342;52.998;5.862;2023-11-19T07:08:43;36.75;;;7.78;;
54430;SDS011;40342;52.998;5.862;2023-11-19T07:11:12;42.17;;;7.53;;
54430;SDS011;40342;52.998;5.862;2023-11-19T07:13:40;39.92;;;7.72;;
54430;SDS011;40342;52.998;5.862;2023-11-19T07:16:06;36.30;;;6.55;;
54430;SDS011;40342;52.998;5.862;2023-11-19T07:18:35;44.90;;;7.55;;
54430;SDS011;40342;52.998;5.862;2023-11-19T07:21:00;33.67;;;6.38;;
54430;SDS011;40342;52.998;5.862;2023-11-19T07:23:28;35.78;;;7.55;;
54430;SDS011;40342;52.998;5.862;2023-11-19T07:25:53;42.47;;;7.90;;
54430;SDS011;40342;52.998;5.862;2023-11-19T07:28:19;35.22;;;8.85;;
54430;SDS011;40342;52.998;5.862;2023-11-19T07:30:44;37.95;;;7.15;;
54430;SDS011;40342;52.998;5.862;2023-11-19T07:33:10;42.80;;;7.53;;
54430;SDS011;40342;52.998;5.862;2023-11-19T07:35:36;38.72;;;7.72;;
54430;SDS011;40342;52.998;5.862;2023-11-19T07:38:02;39.40;;;8.25;;
54430;SDS011;40342;52.998;5.862;2023-11-19T07:40:27;37.97;;;6.97;;
54430;SDS011;40342;52.998;5.862;2023-11-19T07:42:53;39.50;;;8.45;;
54430;SDS011;40342;52.998;5.862;2023-11-19T07:45:19;39.22;;;7.40;;
54430;SDS011;40342;52.998;5.862;2023-11-19T07:47:44;36.65;;;7.55;;
54430;SDS011;40342;52.998;5.862;2023-11-19T07:50:10;36.67;;;7.13;;
54430;SDS011;40342;52.998;5.862;2023-11-19T07:52:38;39.15;;;7.82;;
54430;SDS011;40342;52.998;5.862;2023-11-19T07:55:04;36.30;;;7.68;;
54430;SDS011;40342;52.998;5.862;2023-11-19T07:57:30;37.55;;;7.25;;
54430;SDS011;40342;52.998;5.862;2023-11-19T07:59:56;32.33;;;6.57;;
54430;SDS011;40342;52.998;5.862;2023-11-19T08:02:22;48.65;;;9.00;;
54430;SDS011;40342;52.998;5.862;2023-11-19T08:04:49;39.42;;;7.55;;
54430;SDS011;40342;52.998;5.862;2023-11-19T08:07:17;37.90;;;7.43;;
54430;SDS011;40342;52.998;5.862;2023-11-19T08:09:47;39.67;;;7.00;;
54430;SDS011;40342;52.998;5.862;2023-11-19T08:12:12;51.22;;;8.75;;
54430;SDS011;40342;52.998;5.862;2023-11-19T08:14:40;33.95;;;6.57;;
54430;SDS011;40342;52.998;5.862;2023-11-19T08:17:06;39.20;;;7.82;;
54430;SDS011;40342;52.998;5.862;2023-11-19T08:19:32;44.63;;;8.85;;
54430;SDS011;40342;52.998;5.862;2023-11-19T08:21:57;43.38;;;8.85;;
54430;SDS011;40342;52.998;5.862;2023-11-19T08:24:23;45.97;;;7.18;;
54430;SDS011;40342;52.998;5.862;2023-11-19T08:26:49;38.08;;;7.78;;
54430;SDS011;40342;52.998;5.862;2023-11-19T08:29:14;36.40;;;7.25;;
54430;SDS011;40342;52.998;5.862;2023-11-19T08:31:40;32.90;;;6.88;;
54430;SDS011;40342;52.998;5.862;2023-11-19T08:34:05;42.13;;;6.97;;
54430;SDS011;40342;52.998;5.862;2023-11-19T08:36:34;41.05;;;7.57;;
54430;SDS011;40342;52.998;5.862;2023-11-19T08:38:59;32.55;;;7.43;;
54430;SDS011;40342;52.998;5.862;2023-11-19T08:41:25;33.08;;;6.45;;
54430;SDS011;40342;52.998;5.862;2023-11-19T08:43:51;38.28;;;7.32;;
54430;SDS011;40342;52.998;5.862;2023-11-19T08:46:16;40.55;;;7.70;;
54430;SDS011;40342;52.998;5.862;2023-11-19T08:48:42;41.95;;;7.07;;
54430;SDS011;40342;52.998;5.862;2023-11-19T08:51:08;36.38;;;7.60;;
54430;SDS011;40342;52.998;5.862;2023-11-19T08:53:33;47.35;;;8.32;;
54430;SDS011;40342;52.998;5.862;2023-11-19T08:55:59;35.38;;;6.43;;
54430;SDS011;40342;52.998;5.862;2023-11-19T08:58:25;38.85;;;6.65;;
54430;SDS011;40342;52.998;5.862;2023-11-19T09:00:51;42.30;;;8.02;;
54430;SDS011;40342;52.998;5.862;2023-11-19T09:03:16;43.17;;;7.40;;
54430;SDS011;40342;52.998;5.862;2023-11-19T09:05:42;42.25;;;7.38;;
54430;SDS011;40342;52.998;5.862;2023-11-19T09:08:08;36.38;;;7.15;;
54430;SDS011;40342;52.998;5.862;2023-11-19T09:10:33;33.42;;;7.45;;
54430;SDS011;40342;52.998;5.862;2023-11-19T09:12:59;41.10;;;7.35;;
54430;SDS011;40342;52.998;5.862;2023-11-19T09:15:25;34.20;;;7.07;;
54430;SDS011;40342;52.998;5.862;2023-11-19T09:17:50;38.60;;;8.50;;
54430;SDS011;40342;52.998;5.862;2023-11-19T09:20:16;36.38;;;7.05;;
54430;SDS011;40342;52.998;5.862;2023-11-19T09:22:42;37.50;;;7.32;;
54430;SDS011;40342;52.998;5.862;2023-11-19T09:25:07;37.17;;;7.30;;
54430;SDS011;40342;52.998;5.862;2023-11-19T09:27:34;35.35;;;6.72;;
54430;SDS011;40342;52.998;5.862;2023-11-19T09:29:59;37.25;;;7.65;;
54430;SDS011;40342;52.998;5.862;2023-11-19T09:32:25;37.70;;;7.72;;
54430;SDS011;40342;52.998;5.862;2023-11-19T09:34:51;40.30;;;7.45;;
54430;SDS011;40342;52.998;5.862;2023-11-19T09:37:16;41.55;;;7.55;;
54430;SDS011;40342;52.998;5.862;2023-11-19T09:39:42;29.13;;;6.35;;
54430;SDS011;40342;52.998;5.862;2023-11-19T09:42:09;38.53;;;8.23;;
54430;SDS011;40342;52.998;5.862;2023-11-19T09:44:35;43.58;;;7.93;;
54430;SDS011;40342;52.998;5.862;2023-11-19T09:47:07;34.83;;;7.57;;
54430;SDS011;40342;52.998;5.862;2023-11-19T09:49:33;36.10;;;7.10;;
54430;SDS011;40342;52.998;5.862;2023-11-19T09:52:01;32.75;;;6.20;;
54430;SDS011;40342;52.998;5.862;2023-11-19T09:54:28;34.45;;;6.40;;
54430;SDS011;40342;52.998;5.862;2023-11-19T09:56:53;38.15;;;7.03;;
54430;SDS011;40342;52.998;5.862;2023-11-19T09:59:25;31.30;;;7.90;;
54430;SDS011;40342;52.998;5.862;2023-11-19T10:01:51;33.95;;;6.85;;
54430;SDS011;40342;52.998;5.862;2023-11-19T10:04:17;38.40;;;7.10;;
54430;SDS011;40342;52.998;5.862;2023-11-19T10:06:44;33.00;;;7.10;;
54430;SDS011;40342;52.998;5.862;2023-11-19T10:09:11;38.08;;;6.90;;
54430;SDS011;40342;52.998;5.862;2023-11-19T10:11:37;39.42;;;7.80;;
54430;SDS011;40342;52.998;5.862;2023-11-19T10:14:03;35.60;;;6.78;;
54430;SDS011;40342;52.998;5.862;2023-11-19T10:16:29;39.75;;;8.70;;
54430;SDS011;40342;52.998;5.862;2023-11-19T10:18:56;34.58;;;7.00;;
54430;SDS011;40342;52.998;5.862;2023-11-19T10:21:22;30.42;;;6.05;;
54430;SDS011;40342;52.998;5.862;2023-11-19T10:23:51;34.15;;;7.85;;
54430;SDS011;40342;52.998;5.862;2023-11-19T10:26:19;34.78;;;6.75;;
54430;SDS011;40342;52.998;5.862;2023-11-19T10:28:45;37.78;;;6.80;;
54430;SDS011;40342;52.998;5.862;2023-11-19T10:31:12;39.08;;;7.45;;
54430;SDS011;40342;52.998;5.862;2023-11-19T10:33:42;42.58;;;6.93;;
54430;SDS011;40342;52.998;5.862;2023-11-19T10:36:10;26.75;;;6.78;;
54430;SDS011;40342;52.998;5.862;2023-11-19T10:38:37;32.35;;;6.38;;
54430;SDS011;40342;52.998;5.862;2023-11-19T10:41:03;27.52;;;5.63;;
54430;SDS011;40342;52.998;5.862;2023-11-19T10:43:30;27.55;;;6.55;;
54430;SDS011;40342;52.998;5.862;2023-11-19T10:46:09;26.17;;;6.47;;
54430;SDS011;40342;52.998;5.862;2023-11-19T10:48:38;29.05;;;5.75;;
54430;SDS011;40342;52.998;5.862;2023-11-19T10:51:05;24.45;;;5.43;;
54430;SDS011;40342;52.998;5.862;2023-11-19T10:53:36;36.15;;;7.15;;
54430;SDS011;40342;52.998;5.862;2023-11-19T10:56:04;28.27;;;6.00;;
54430;SDS011;40342;52.998;5.862;2023-11-19T10:58:35;33.72;;;5.72;;
54430;SDS011;40342;52.998;5.862;2023-11-19T11:01:19;34.45;;;6.97;;
54430;SDS011;40342;52.998;5.862;2023-11-19T11:03:48;41.05;;;8.23;;
54430;SDS011;40342;52.998;5.862;2023-11-19T11:06:16;31.55;;;6.57;;
54430;SDS011;40342;52.998;5.862;2023-11-19T11:08:43;32.30;;;7.50;;
54430;SDS011;40342;52.998;5.862;2023-11-19T11:11:11;37.42;;;6.97;;
54430;SDS011;40342;52.998;5.862;2023-11-19T11:13:42;31.25;;;6.63;;
54430;SDS011;40342;52.998;5.862;2023-11-19T11:16:08;40.80;;;7.90;;
54430;SDS011;40342;52.998;5.862;2023-11-19T11:18:34;32.90;;;6.88;;
54430;SDS011;40342;52.998;5.862;2023-11-19T11:21:00;38.15;;;6.82;;
54430;SDS011;40342;52.998;5.862;2023-11-19T11:29:14;37.60;;;6.43;;
54430;SDS011;40342;52.998;5.862;2023-11-19T11:34:55;35.97;;;6.82;;
54430;SDS011;40342;52.998;5.862;2023-11-19T11:37:35;30.73;;;5.88;;
54430;SDS011;40342;52.998;5.862;2023-11-19T11:40:04;26.65;;;5.60;;
54430;SDS011;40342;52.998;5.862;2023-11-19T11:42:35;37.17;;;7.57;;
54430;SDS011;40342;52.998;5.862;2023-11-19T11:50:08;25.77;;;6.97;;
54430;SDS011;40342;52.998;5.862;2023-11-19T11:57:51;34.50;;;6.63;;
54430;SDS011;40342;52.998;5.862;2023-11-19T12:02:55;34.30;;;6.93;;
54430;SDS011;40342;52.998;5.862;2023-11-19T12:05:21;36.10;;;6.97;;
54430;SDS011;40342;52.998;5.862;2023-11-19T12:08:00;29.83;;;5.53;;
54430;SDS011;40342;52.998;5.862;2023-11-19T12:10:29;26.13;;;5.55;;
54430;SDS011;40342;52.998;5.862;2023-11-19T12:12:59;37.53;;;7.97;;
54430;SDS011;40342;52.998;5.862;2023-11-19T12:15:26;33.08;;;6.28;;
54430;SDS011;40342;52.998;5.862;2023-11-19T12:17:52;31.17;;;6.00;;
54430;SDS011;40342;52.998;5.862;2023-11-19T12:20:28;31.33;;;6.07;;
54430;SDS011;40342;52.998;5.862;2023-11-19T12:23:02;25.85;;;6.10;;
54430;SDS011;40342;52.998;5.862;2023-11-19T12:25:30;27.60;;;5.13;;
54430;SDS011;40342;52.998;5.862;2023-11-19T12:27:59;29.90;;;5.45;;
54430;SDS011;40342;52.998;5.862;2023-11-19T12:30:29;31.67;;;6.20;;
54430;SDS011;40342;52.998;5.862;2023-11-19T12:32:55;33.45;;;5.72;;
54430;SDS011;40342;52.998;5.862;2023-11-19T12:35:20;37.25;;;6.07;;
54430;SDS011;40342;52.998;5.862;2023-11-19T12:37:47;31.60;;;5.82;;
54430;SDS011;40342;52.998;5.862;2023-11-19T12:42:48;25.92;;;5.18;;
54430;SDS011;40342;52.998;5.862;2023-11-19T12:45:14;32.50;;;6.25;;
54430;SDS011;40342;52.998;5.862;2023-11-19T12:47:41;31.33;;;6.03;;
54430;SDS011;40342;52.998;5.862;2023-11-19T12:50:12;30.48;;;5.60;;
54430;SDS011;40342;52.998;5.862;2023-11-19T12:52:38;27.63;;;5.22;;
54430;SDS011;40342;52.998;5.862;2023-11-19T12:55:05;22.30;;;5.35;;
54430;SDS011;40342;52.998;5.862;2023-11-19T12:57:49;30.00;;;5.90;;
54430;SDS011;40342;52.998;5.862;2023-11-19T13:00:18;23.05;;;5.63;;
54430;SDS011;40342;52.998;5.862;2023-11-19T13:02:46;24.95;;;5.30;;
54430;SDS011;40342;52.998;5.862;2023-11-19T13:08:03;32.67;;;5.70;;
54430;SDS011;40342;52.998;5.862;2023-11-19T13:10:30;20.27;;;4.82;;
54430;SDS011;40342;52.998;5.862;2023-11-19T13:13:01;24.73;;;4.97;;
54430;SDS011;40342;52.998;5.862;2023-11-19T13:15:27;26.85;;;5.97;;
54430;SDS011;40342;52.998;5.862;2023-11-19T13:17:53;35.03;;;6.68;;
54430;SDS011;40342;52.998;5.862;2023-11-19T13:20:19;35.88;;;6.65;;
54430;SDS011;40342;52.998;5.862;2023-11-19T13:23:02;26.20;;;6.28;;
54430;SDS011;40342;52.998;5.862;2023-11-19T13:25:29;25.40;;;5.95;;
54430;SDS011;40342;52.998;5.862;2023-11-19T13:27:55;29.92;;;5.97;;
54430;SDS011;40342;52.998;5.862;2023-11-19T13:30:21;24.73;;;5.80;;
54430;SDS011;40342;52.998;5.862;2023-11-19T13:32:47;26.95;;;5.40;;
54430;SDS011;40342;52.998;5.862;2023-11-19T13:35:14;24.52;;;5.55;;
54430;SDS011;40342;52.998;5.862;2023-11-19T13:37:40;29.10;;;5.72;;
54430;SDS011;40342;52.998;5.862;2023-11-19T13:40:06;27.20;;;6.18;;
54430;SDS011;40342;52.998;5.862;2023-11-19T13:42:34;26.38;;;5.95;;
54430;SDS011;40342;52.998;5.862;2023-11-19T13:45:06;27.02;;;6.10;;
54430;SDS011;40342;52.998;5.862;2023-11-19T13:47:37;27.65;;;5.72;;
54430;SDS011;40342;52.998;5.862;2023-11-19T13:50:10;28.95;;;6.20;;
54430;SDS011;40342;52.998;5.862;2023-11-19T13:52:41;27.45;;;6.05;;
54430;SDS011;40342;52.998;5.862;2023-11-19T13:55:08;28.30;;;5.47;;
54430;SDS011;40342;52.998;5.862;2023-11-19T13:57:35;25.02;;;5.15;;
54430;SDS011;40342;52.998;5.862;2023-11-19T14:00:02;30.27;;;5.90;;
54430;SDS011;40342;52.998;5.862;2023-11-19T14:02:35;28.92;;;5.85;;
54430;SDS011;40342;52.998;5.862;2023-11-19T14:05:01;28.67;;;5.90;;
54430;SDS011;40342;52.998;5.862;2023-11-19T14:07:26;29.88;;;6.90;;
54430;SDS011;40342;52.998;5.862;2023-11-19T14:09:52;30.98;;;6.95;;
54430;SDS011;40342;52.998;5.862;2023-11-19T14:12:19;31.75;;;6.50;;
54430;SDS011;40342;52.998;5.862;2023-11-19T14:14:44;34.15;;;5.93;;
54430;SDS011;40342;52.998;5.862;2023-11-19T14:17:10;28.35;;;5.07;;
54430;SDS011;40342;52.998;5.862;2023-11-19T14:19:36;31.38;;;6.07;;
54430;SDS011;40342;52.998;5.862;2023-11-19T14:22:03;27.00;;;5.13;;
54430;SDS011;40342;52.998;5.862;2023-11-19T14:24:29;31.48;;;6.00;;
54430;SDS011;40342;52.998;5.862;2023-11-19T14:26:54;25.05;;;5.88;;
54430;SDS011;40342;52.998;5.862;2023-11-19T14:29:23;27.98;;;5.32;;
54430;SDS011;40342;52.998;5.862;2023-11-19T14:31:48;27.02;;;4.95;;
54430;SDS011;40342;52.998;5.862;2023-11-19T14:34:14;24.40;;;5.25;;
54430;SDS011;40342;52.998;5.862;2023-11-19T14:36:39;21.35;;;4.78;;
54430;SDS011;40342;52.998;5.862;2023-11-19T14:39:05;28.58;;;6.53;;
54430;SDS011;40342;52.998;5.862;2023-11-19T14:41:32;19.83;;;4.55;;
54430;SDS011;40342;52.998;5.862;2023-11-19T14:43:57;27.90;;;5.20;;
54430;SDS011;40342;52.998;5.862;2023-11-19T14:46:23;24.77;;;5.93;;
54430;SDS011;40342;52.998;5.862;2023-11-19T14:48:48;29.92;;;6.00;;
54430;SDS011;40342;52.998;5.862;2023-11-19T14:51:14;35.17;;;6.88;;
54430;SDS011;40342;52.998;5.862;2023-11-19T14:53:39;22.83;;;5.05;;
54430;SDS011;40342;52.998;5.862;2023-11-19T14:56:05;23.80;;;5.40;;
54430;SDS011;40342;52.998;5.862;2023-11-19T14:58:35;26.92;;;5.25;;
54430;SDS011;40342;52.998;5.862;2023-11-19T15:01:00;30.20;;;6.70;;